Time;durP1;ratioP1;P1;durP2;ratioP2;P2;SDS_P1;SDS_P2;PMS_P1;PMS_P2;Temp;Humidity;BMP_temperature;BMP_pressure;BME280_temperature;BME280_humidity;BME280_pressure;Samples;Min_cycle;Max_cycle;Signal;HPM_P1;HPM_P2
2023/12/26 00:00:49;;;;;;;2.10;1.20;;;;;;;;;;5073782;28;20059;-59
2023/12/26 00:03:16;;;;;;;2.05;1.30;;;;;;;;;;5077071;28;20063;-60
2023/12/26 00:05:43;;;;;;;1.42;1.10;;;;;;;;;;5090691;28;20408;-60
2023/12/26 00:08:10;;;;;;;1.30;1.00;;;;;;;;;;5092880;28;20044;-59
2023/12/26 00:10:37;;;;;;;2.03;1.20;;;;;;;;;;5080036;28;20067;-59
2023/12/26 00:13:05;;;;;;;2.10;1.20;;;;;;;;;;5092324;28;20060;-58
2023/12/26 00:15:32;;;;;;;2.13;1.00;;;;;;;;;;5082255;28;20049;-59
2023/12/26 00:17:59;;;;;;;1.40;0.90;;;;;;;;;;5072545;28;20057;-59
2023/12/26 00:20:26;;;;;;;1.92;1.20;;;;;;;;;;5082499;28;20049;-59
2023/12/26 00:22:53;;;;;;;2.28;1.20;;;;;;;;;;5088713;28;20059;-58
2023/12/26 00:25:20;;;;;;;1.60;0.85;;;;;;;;;;5077857;28;20047;-58
2023/12/26 00:27:47;;;;;;;1.67;0.90;;;;;;;;;;5092387;28;20067;-60
2023/12/26 00:30:15;;;;;;;2.78;0.80;;;;;;;;;;5080461;28;20052;-59
2023/12/26 00:32:42;;;;;;;1.40;0.77;;;;;;;;;;5092213;28;20059;-60
2023/12/26 00:35:12;;;;;;;2.90;1.10;;;;;;;;;;5076231;28;20496;-59
2023/12/26 00:37:39;;;;;;;2.30;1.13;;;;;;;;;;5081475;28;20051;-59
2023/12/26 00:40:06;;;;;;;1.20;0.80;;;;;;;;;;5081054;28;20386;-59
2023/12/26 00:42:33;;;;;;;1.42;0.90;;;;;;;;;;5080563;28;20405;-59
2023/12/26 00:45:00;;;;;;;1.45;0.93;;;;;;;;;;5082834;28;20048;-59
2023/12/26 00:47:28;;;;;;;1.95;0.90;;;;;;;;;;5073006;28;20053;-59
2023/12/26 00:49:57;;;;;;;1.33;0.70;;;;;;;;;;5084402;28;20074;-59
2023/12/26 00:52:25;;;;;;;1.15;0.70;;;;;;;;;;5081981;28;20131;-59
2023/12/26 00:54:52;;;;;;;2.60;0.80;;;;;;;;;;5076674;28;20504;-59
2023/12/26 00:57:19;;;;;;;1.00;0.65;;;;;;;;;;5073116;28;20044;-58
2023/12/26 00:59:46;;;;;;;1.08;0.60;;;;;;;;;;5082915;28;20052;-59
2023/12/26 01:02:13;;;;;;;1.33;0.80;;;;;;;;;;5078658;28;20048;-59
2023/12/26 01:04:42;;;;;;;1.73;0.95;;;;;;;;;;5083901;28;20063;-60
2023/12/26 01:07:08;;;;;;;1.95;0.90;;;;;;;;;;5086730;28;20048;-58
2023/12/26 01:09:35;;;;;;;1.80;0.68;;;;;;;;;;5076230;28;20043;-59
2023/12/26 01:12:02;;;;;;;0.90;0.60;;;;;;;;;;5073896;28;20406;-59
2023/12/26 01:14:29;;;;;;;1.05;0.70;;;;;;;;;;5090241;28;20489;-60
2023/12/26 01:16:56;;;;;;;1.38;0.73;;;;;;;;;;5072064;28;20493;-58
2023/12/26 01:19:23;;;;;;;1.27;0.70;;;;;;;;;;5072989;28;20044;-58
2023/12/26 01:21:51;;;;;;;1.13;0.57;;;;;;;;;;5074097;28;20059;-59
2023/12/26 01:24:18;;;;;;;0.60;0.40;;;;;;;;;;5089727;28;20044;-58
2023/12/26 01:26:45;;;;;;;1.73;0.60;;;;;;;;;;5089022;28;20051;-58
2023/12/26 01:29:12;;;;;;;1.38;0.80;;;;;;;;;;5073242;28;20063;-57
2023/12/26 01:31:39;;;;;;;1.63;0.70;;;;;;;;;;5094351;28;20048;-58
2023/12/26 01:34:06;;;;;;;1.92;0.80;;;;;;;;;;5077134;28;20060;-58
2023/12/26 01:36:33;;;;;;;1.40;0.80;;;;;;;;;;5076493;28;20048;-58
2023/12/26 01:39:01;;;;;;;1.83;0.80;;;;;;;;;;5076330;28;20045;-57
2023/12/26 01:41:28;;;;;;;1.05;0.57;;;;;;;;;;5083030;28;20555;-59
2023/12/26 01:43:55;;;;;;;2.30;0.90;;;;;;;;;;5079989;28;20049;-58
2023/12/26 01:46:22;;;;;;;1.67;0.77;;;;;;;;;;5093034;28;20052;-57
2023/12/26 01:48:51;;;;;;;1.45;0.70;;;;;;;;;;5079252;28;20045;-58
2023/12/26 01:51:20;;;;;;;1.15;0.70;;;;;;;;;;5090432;28;20059;-58
2023/12/26 01:53:47;;;;;;;1.50;0.73;;;;;;;;;;5086272;28;20059;-58
2023/12/26 01:56:15;;;;;;;1.30;0.75;;;;;;;;;;5079940;28;20052;-58
2023/12/26 01:58:42;;;;;;;1.50;0.80;;;;;;;;;;5076085;28;20041;-58
2023/12/26 02:01:12;;;;;;;2.05;0.80;;;;;;;;;;5075949;28;20059;-57
2023/12/26 02:03:40;;;;;;;1.40;0.80;;;;;;;;;;5078718;28;20052;-61
2023/12/26 02:06:07;;;;;;;1.48;0.98;;;;;;;;;;5094605;28;20059;-58
2023/12/26 02:08:35;;;;;;;1.20;0.70;;;;;;;;;;5091912;28;20040;-58
2023/12/26 02:11:02;;;;;;;1.70;0.90;;;;;;;;;;5093441;28;20044;-58
2023/12/26 02:13:30;;;;;;;1.95;0.70;;;;;;;;;;5075518;28;20052;-58
2023/12/26 02:15:59;;;;;;;1.30;0.70;;;;;;;;;;5088338;28;20052;-58
2023/12/26 02:18:26;;;;;;;1.20;0.73;;;;;;;;;;5087914;28;20044;-58
2023/12/26 02:20:53;;;;;;;2.00;1.00;;;;;;;;;;5078730;28;20491;-58
2023/12/26 02:23:21;;;;;;;1.60;1.13;;;;;;;;;;5079356;28;20490;-59
2023/12/26 02:25:53;;;;;;;1.20;0.70;;;;;;;;;;5078155;28;20059;-61
2023/12/26 02:28:20;;;;;;;2.63;0.93;;;;;;;;;;5079219;28;20048;-60
2023/12/26 02:30:48;;;;;;;2.05;0.80;;;;;;;;;;5075287;28;20048;-59
2023/12/26 02:33:15;;;;;;;2.72;1.00;;;;;;;;;;5089273;28;20048;-59
2023/12/26 02:35:43;;;;;;;8.27;1.02;;;;;;;;;;5092228;28;20056;-59
2023/12/26 02:38:10;;;;;;;1.90;0.95;;;;;;;;;;5081392;28;20053;-59
2023/12/26 02:40:36;;;;;;;1.67;1.10;;;;;;;;;;5089867;28;20052;-59
2023/12/26 02:43:05;;;;;;;2.33;0.73;;;;;;;;;;5084577;28;20052;-60
2023/12/26 02:45:32;;;;;;;1.45;0.85;;;;;;;;;;5074939;28;20056;-59
2023/12/26 02:47:58;;;;;;;2.13;0.80;;;;;;;;;;5074730;28;20055;-59
2023/12/26 02:50:25;;;;;;;3.03;0.90;;;;;;;;;;5083099;28;20056;-60
2023/12/26 02:52:52;;;;;;;1.90;1.02;;;;;;;;;;5081209;28;20405;-59
2023/12/26 02:55:19;;;;;;;1.30;0.63;;;;;;;;;;5091223;28;20055;-59
2023/12/26 02:57:46;;;;;;;1.77;0.80;;;;;;;;;;5094405;28;20052;-59
2023/12/26 03:00:14;;;;;;;2.33;1.60;;;;;;;;;;5085526;28;20131;-59
2023/12/26 03:02:41;;;;;;;1.75;0.70;;;;;;;;;;5075870;28;20052;-59
2023/12/26 03:05:08;;;;;;;2.22;0.80;;;;;;;;;;5076257;28;20064;-59
2023/12/26 03:07:35;;;;;;;1.70;0.80;;;;;;;;;;5086767;28;20048;-59
2023/12/26 03:10:07;;;;;;;2.90;1.30;;;;;;;;;;5092512;28;20481;-60
2023/12/26 03:12:34;;;;;;;2.65;0.93;;;;;;;;;;5074559;28;20051;-59
2023/12/26 03:15:00;;;;;;;4.18;1.10;;;;;;;;;;5074046;28;20052;-62
2023/12/26 03:17:29;;;;;;;1.65;1.00;;;;;;;;;;5092155;28;20417;-59
2023/12/26 03:19:56;;;;;;;1.40;0.75;;;;;;;;;;5076461;28;20048;-59
2023/12/26 03:22:22;;;;;;;1.40;0.80;;;;;;;;;;5082933;28;20055;-59
2023/12/26 03:24:49;;;;;;;1.70;1.00;;;;;;;;;;5077269;28;20410;-60
2023/12/26 03:27:16;;;;;;;1.42;0.98;;;;;;;;;;5079305;28;20513;-60
2023/12/26 03:29:43;;;;;;;1.40;0.80;;;;;;;;;;5073837;28;20052;-59
2023/12/26 03:32:10;;;;;;;2.35;1.00;;;;;;;;;;5073846;28;20052;-59
2023/12/26 03:34:39;;;;;;;2.25;1.20;;;;;;;;;;5074562;28;20056;-59
2023/12/26 03:37:06;;;;;;;2.40;0.90;;;;;;;;;;5091031;28;20421;-59
2023/12/26 03:39:33;;;;;;;2.45;0.90;;;;;;;;;;5094278;28;20048;-59
2023/12/26 03:42:00;;;;;;;3.05;1.00;;;;;;;;;;5091839;28;20052;-59
2023/12/26 03:44:27;;;;;;;1.50;0.70;;;;;;;;;;5085000;28;20052;-59
2023/12/26 03:46:53;;;;;;;1.70;0.90;;;;;;;;;;5073624;28;20051;-59
2023/12/26 03:49:20;;;;;;;2.33;1.52;;;;;;;;;;5074217;28;20040;-59
2023/12/26 03:51:49;;;;;;;3.03;1.15;;;;;;;;;;5084314;28;20082;-61
2023/12/26 03:54:15;;;;;;;2.22;1.10;;;;;;;;;;5072588;28;20417;-59
2023/12/26 03:56:42;;;;;;;1.10;0.70;;;;;;;;;;5073656;28;20052;-59
2023/12/26 03:59:09;;;;;;;1.83;0.80;;;;;;;;;;5089498;28;20052;-59
2023/12/26 04:01:36;;;;;;;2.28;0.60;;;;;;;;;;5077483;28;20053;-59
2023/12/26 04:04:03;;;;;;;2.08;0.82;;;;;;;;;;5073361;28;20053;-58
2023/12/26 04:06:30;;;;;;;1.25;0.85;;;;;;;;;;5084013;28;20074;-58
2023/12/26 04:08:58;;;;;;;1.25;0.70;;;;;;;;;;5080223;28;20520;-59
2023/12/26 04:11:25;;;;;;;1.48;0.70;;;;;;;;;;5091259;28;20481;-58
2023/12/26 04:13:52;;;;;;;1.60;0.85;;;;;;;;;;5076521;28;20064;-59
2023/12/26 04:16:18;;;;;;;1.33;0.85;;;;;;;;;;5073541;28;20413;-59
2023/12/26 04:18:46;;;;;;;1.00;0.57;;;;;;;;;;5073416;28;20072;-59
2023/12/26 04:21:13;;;;;;;1.10;0.70;;;;;;;;;;5074198;28;20052;-58
2023/12/26 04:23:39;;;;;;;1.55;0.65;;;;;;;;;;5074930;28;20052;-60
2023/12/26 04:26:08;;;;;;;2.78;0.70;;;;;;;;;;5082318;28;20048;-58
2023/12/26 04:28:34;;;;;;;0.88;0.52;;;;;;;;;;5077366;28;20056;-58
2023/12/26 04:31:03;;;;;;;1.45;0.57;;;;;;;;;;5072956;28;20059;-58
2023/12/26 04:33:30;;;;;;;1.73;0.73;;;;;;;;;;5073063;28;20064;-58
2023/12/26 04:35:57;;;;;;;1.98;0.60;;;;;;;;;;5089350;28;20401;-58
2023/12/26 04:38:23;;;;;;;1.98;0.60;;;;;;;;;;5090583;28;20055;-58
2023/12/26 04:40:50;;;;;;;1.08;0.60;;;;;;;;;;5089138;28;20059;-59
2023/12/26 04:43:19;;;;;;;1.25;0.80;;;;;;;;;;5085040;28;20051;-58
2023/12/26 04:45:45;;;;;;;1.45;0.70;;;;;;;;;;5073151;28;20478;-58
2023/12/26 04:48:12;;;;;;;1.20;0.73;;;;;;;;;;5072592;28;20517;-58
2023/12/26 04:50:39;;;;;;;1.25;0.70;;;;;;;;;;5077258;28;20060;-58
2023/12/26 04:53:06;;;;;;;1.00;0.60;;;;;;;;;;5090973;28;20491;-58
2023/12/26 04:55:33;;;;;;;0.70;0.50;;;;;;;;;;5092130;28;20048;-58
2023/12/26 04:58:00;;;;;;;1.08;0.60;;;;;;;;;;5091793;28;20048;-59
2023/12/26 05:00:28;;;;;;;1.05;0.70;;;;;;;;;;5089645;28;20052;-59
2023/12/26 05:02:55;;;;;;;0.90;0.50;;;;;;;;;;5072632;28;20056;-59
2023/12/26 05:05:22;;;;;;;1.60;0.70;;;;;;;;;;5071735;28;20061;-59
2023/12/26 05:07:49;;;;;;;3.10;0.65;;;;;;;;;;5072497;28;20501;-60
2023/12/26 05:10:15;;;;;;;1.45;0.60;;;;;;;;;;5078156;28;20055;-58
2023/12/26 05:12:42;;;;;;;1.33;0.70;;;;;;;;;;5084312;28;20056;-59
2023/12/26 05:15:09;;;;;;;1.10;0.60;;;;;;;;;;5075547;28;20052;-59
2023/12/26 05:17:38;;;;;;;2.85;1.17;;;;;;;;;;5072531;28;20449;-59
2023/12/26 05:20:05;;;;;;;3.65;1.27;;;;;;;;;;5078448;28;20044;-60
2023/12/26 05:22:32;;;;;;;2.17;0.90;;;;;;;;;;5071965;28;20055;-58
2023/12/26 05:24:58;;;;;;;0.93;0.60;;;;;;;;;;5084382;28;20114;-58
2023/12/26 05:27:25;;;;;;;1.73;0.70;;;;;;;;;;5090479;28;20052;-59
2023/12/26 05:29:52;;;;;;;1.55;0.85;;;;;;;;;;5084510;28;20052;-59
2023/12/26 05:32:19;;;;;;;1.40;0.70;;;;;;;;;;5085797;28;20051;-59
2023/12/26 05:34:48;;;;;;;1.60;0.77;;;;;;;;;;5073903;28;20425;-59
2023/12/26 05:37:15;;;;;;;1.23;0.60;;;;;;;;;;5073626;28;20075;-59
2023/12/26 05:39:43;;;;;;;2.17;0.70;;;;;;;;;;5074282;28;20475;-59
2023/12/26 05:42:09;;;;;;;1.65;0.65;;;;;;;;;;5083981;28;20063;-59
2023/12/26 05:44:36;;;;;;;2.60;0.65;;;;;;;;;;5091934;28;20052;-60
2023/12/26 05:47:04;;;;;;;3.13;0.88;;;;;;;;;;5082738;28;20059;-59
2023/12/26 05:49:31;;;;;;;2.08;0.60;;;;;;;;;;5071868;28;20401;-58
2023/12/26 05:51:59;;;;;;;1.70;0.88;;;;;;;;;;5073498;28;20056;-60
2023/12/26 05:54:26;;;;;;;1.90;0.60;;;;;;;;;;5080033;28;20051;-59
2023/12/26 05:56:53;;;;;;;2.10;0.57;;;;;;;;;;5091339;28;20052;-61
2023/12/26 05:59:20;;;;;;;2.25;0.70;;;;;;;;;;5090138;28;20354;-58
2023/12/26 06:01:47;;;;;;;2.83;0.88;;;;;;;;;;5090416;28;20056;-58
2023/12/26 06:04:13;;;;;;;1.77;0.70;;;;;;;;;;5086899;28;20055;-58
2023/12/26 06:06:40;;;;;;;3.60;1.10;;;;;;;;;;5079070;28;20489;-59
2023/12/26 06:09:08;;;;;;;2.72;0.95;;;;;;;;;;5086008;28;20060;-58
2023/12/26 06:11:35;;;;;;;3.42;1.10;;;;;;;;;;5075410;28;20051;-58
2023/12/26 06:14:02;;;;;;;4.05;1.42;;;;;;;;;;5076817;28;20055;-59
2023/12/26 06:16:29;;;;;;;4.38;1.38;;;;;;;;;;5087154;28;20399;-59
2023/12/26 06:18:56;;;;;;;3.58;1.40;;;;;;;;;;5092069;28;20427;-58
2023/12/26 06:21:23;;;;;;;2.67;1.10;;;;;;;;;;5084610;28;20059;-58
2023/12/26 06:23:50;;;;;;;3.47;1.08;;;;;;;;;;5095415;28;20048;-58
2023/12/26 06:26:18;;;;;;;2.22;1.20;;;;;;;;;;5092097;28;20416;-58
2023/12/26 06:28:45;;;;;;;3.20;1.42;;;;;;;;;;5094467;28;20052;-59
2023/12/26 06:31:13;;;;;;;4.15;1.80;;;;;;;;;;5077222;28;20048;-58
2023/12/26 06:33:40;;;;;;;5.60;2.03;;;;;;;;;;5086332;28;20060;-59
2023/12/26 06:36:07;;;;;;;3.97;2.15;;;;;;;;;;5077461;28;20053;-58
2023/12/26 06:38:34;;;;;;;5.90;2.42;;;;;;;;;;5090691;28;20059;-58
2023/12/26 06:41:02;;;;;;;5.20;2.88;;;;;;;;;;5075367;28;20049;-58
2023/12/26 06:43:30;;;;;;;3.80;2.40;;;;;;;;;;5081366;28;20047;-59
2023/12/26 06:45:57;;;;;;;4.72;2.10;;;;;;;;;;5095395;28;20473;-57
2023/12/26 06:48:24;;;;;;;5.65;2.50;;;;;;;;;;5095272;28;20048;-58
2023/12/26 06:50:51;;;;;;;4.70;2.30;;;;;;;;;;5091615;28;20052;-58
2023/12/26 06:53:17;;;;;;;4.72;2.08;;;;;;;;;;5095312;28;20063;-59
2023/12/26 06:55:44;;;;;;;4.65;2.10;;;;;;;;;;5095200;28;20058;-58
2023/12/26 06:58:11;;;;;;;4.32;1.92;;;;;;;;;;5077953;28;20059;-58
2023/12/26 07:00:39;;;;;;;5.03;1.90;;;;;;;;;;5083715;28;20502;-58
2023/12/26 07:03:08;;;;;;;5.72;2.47;;;;;;;;;;5077412;28;20056;-58
2023/12/26 07:05:35;;;;;;;5.22;2.15;;;;;;;;;;5084590;28;20055;-58
2023/12/26 07:08:02;;;;;;;4.13;2.20;;;;;;;;;;5091441;28;20056;-59
2023/12/26 07:10:29;;;;;;;4.35;2.60;;;;;;;;;;5079446;28;20051;-59
2023/12/26 07:12:56;;;;;;;3.33;2.17;;;;;;;;;;5092191;28;20428;-59
2023/12/26 07:15:23;;;;;;;5.53;2.22;;;;;;;;;;5074647;28;20478;-58
2023/12/26 07:17:51;;;;;;;3.75;2.05;;;;;;;;;;5074342;28;20055;-58
2023/12/26 07:20:19;;;;;;;4.22;2.13;;;;;;;;;;5076270;28;20059;-58
2023/12/26 07:22:46;;;;;;;5.32;2.70;;;;;;;;;;5087154;28;20063;-58
2023/12/26 07:25:13;;;;;;;6.72;2.70;;;;;;;;;;5083682;28;20079;-59
2023/12/26 07:27:40;;;;;;;6.13;2.78;;;;;;;;;;5084476;28;20079;-58
2023/12/26 07:30:07;;;;;;;6.55;2.60;;;;;;;;;;5080129;28;20126;-58
2023/12/26 07:32:34;;;;;;;5.88;2.30;;;;;;;;;;5091766;28;20055;-59
2023/12/26 07:35:03;;;;;;;5.20;1.95;;;;;;;;;;5086915;28;20052;-57
2023/12/26 07:37:29;;;;;;;3.75;2.40;;;;;;;;;;5073985;28;20076;-59
2023/12/26 07:39:56;;;;;;;4.97;2.80;;;;;;;;;;5084726;28;20052;-58
2023/12/26 07:42:23;;;;;;;7.05;2.67;;;;;;;;;;5093749;28;20055;-59
2023/12/26 07:44:50;;;;;;;7.97;3.33;;;;;;;;;;5092080;28;20052;-59
2023/12/26 07:47:17;;;;;;;6.13;2.60;;;;;;;;;;5074948;28;20048;-58
2023/12/26 07:49:44;;;;;;;4.68;2.78;;;;;;;;;;5089755;28;20055;-59
2023/12/26 07:52:12;;;;;;;8.90;3.40;;;;;;;;;;5081343;28;20451;-59
2023/12/26 07:54:39;;;;;;;6.07;3.30;;;;;;;;;;5074994;28;20056;-59
2023/12/26 07:57:05;;;;;;;5.95;3.30;;;;;;;;;;5091656;28;20539;-59
2023/12/26 07:59:32;;;;;;;5.32;3.17;;;;;;;;;;5093610;28;20492;-59
2023/12/26 08:01:59;;;;;;;5.70;3.00;;;;;;;;;;5093627;28;20055;-59
2023/12/26 08:04:26;;;;;;;5.72;2.83;;;;;;;;;;5092315;28;20067;-59
2023/12/26 08:06:53;;;;;;;6.13;3.08;;;;;;;;;;5080897;28;20057;-60
2023/12/26 08:09:21;;;;;;;5.20;2.90;;;;;;;;;;5073313;28;20059;-60
2023/12/26 08:11:53;;;;;;;5.85;2.67;;;;;;;;;;5073523;28;20049;-59
2023/12/26 08:14:19;;;;;;;7.50;2.90;;;;;;;;;;5073273;28;20499;-60
2023/12/26 08:16:46;;;;;;;8.82;3.05;;;;;;;;;;5073384;28;20485;-59
2023/12/26 08:19:13;;;;;;;7.28;2.90;;;;;;;;;;5073936;28;20048;-60
2023/12/26 08:21:40;;;;;;;6.15;2.88;;;;;;;;;;5090792;28;20048;-58
2023/12/26 08:24:08;;;;;;;5.28;2.40;;;;;;;;;;5093023;28;20048;-58
2023/12/26 08:26:36;;;;;;;7.13;2.42;;;;;;;;;;5089821;28;20056;-58
2023/12/26 08:29:03;;;;;;;9.93;3.00;;;;;;;;;;5077059;28;20417;-59
2023/12/26 08:31:30;;;;;;;5.78;2.78;;;;;;;;;;5074884;28;20049;-58
2023/12/26 08:33:57;;;;;;;6.07;2.38;;;;;;;;;;5072951;28;20052;-58
2023/12/26 08:36:25;;;;;;;7.40;2.20;;;;;;;;;;5080012;28;20060;-59
2023/12/26 08:38:52;;;;;;;7.97;2.30;;;;;;;;;;5090867;28;20049;-59
2023/12/26 08:41:18;;;;;;;7.40;2.63;;;;;;;;;;5072620;28;20401;-59
2023/12/26 08:43:47;;;;;;;5.78;2.13;;;;;;;;;;5078019;28;20047;-58
2023/12/26 08:46:14;;;;;;;6.47;2.58;;;;;;;;;;5072521;28;20053;-59
2023/12/26 08:48:41;;;;;;;8.55;2.88;;;;;;;;;;5081278;28;20421;-59
2023/12/26 08:51:07;;;;;;;9.20;2.45;;;;;;;;;;5092473;28;20044;-60
2023/12/26 08:53:34;;;;;;;7.07;2.13;;;;;;;;;;5074047;28;20048;-59
2023/12/26 08:56:03;;;;;;;4.72;2.03;;;;;;;;;;5073200;28;20066;-58
2023/12/26 08:58:31;;;;;;;8.68;2.50;;;;;;;;;;5081794;28;20044;-59
2023/12/26 09:01:00;;;;;;;4.75;1.60;;;;;;;;;;5077622;28;20044;-59
2023/12/26 09:03:27;;;;;;;5.70;2.03;;;;;;;;;;5079118;28;20412;-60
2023/12/26 09:05:54;;;;;;;6.63;2.42;;;;;;;;;;5092135;28;20462;-59
2023/12/26 09:08:21;;;;;;;4.97;1.90;;;;;;;;;;5073950;28;20053;-60
2023/12/26 09:10:48;;;;;;;6.40;1.77;;;;;;;;;;5072458;28;20048;-59
2023/12/26 09:13:16;;;;;;;6.72;2.20;;;;;;;;;;5072284;28;20059;-59
2023/12/26 09:15:43;;;;;;;7.70;2.10;;;;;;;;;;5072651;28;20064;-59
2023/12/26 09:18:11;;;;;;;4.90;1.63;;;;;;;;;;5072214;28;20052;-60
2023/12/26 09:20:38;;;;;;;8.55;1.90;;;;;;;;;;5072201;28;20378;-60
2023/12/26 09:23:05;;;;;;;6.55;1.60;;;;;;;;;;5074160;28;20051;-60
2023/12/26 09:25:32;;;;;;;7.15;2.75;;;;;;;;;;5083284;28;20479;-60
2023/12/26 09:27:58;;;;;;;5.93;2.47;;;;;;;;;;5091830;28;20063;-60
2023/12/26 09:30:25;;;;;;;5.68;1.95;;;;;;;;;;5092208;28;20389;-60
2023/12/26 09:32:52;;;;;;;6.75;1.90;;;;;;;;;;5092434;28;20056;-60
2023/12/26 09:35:20;;;;;;;6.55;2.33;;;;;;;;;;5092142;28;20048;-61
2023/12/26 09:37:47;;;;;;;9.40;2.85;;;;;;;;;;5084314;28;20060;-60
2023/12/26 09:40:15;;;;;;;8.25;2.30;;;;;;;;;;5072076;28;20053;-60
2023/12/26 09:42:42;;;;;;;5.90;1.80;;;;;;;;;;5071669;28;20055;-59
2023/12/26 09:45:11;;;;;;;5.30;2.10;;;;;;;;;;5072016;28;20056;-60
2023/12/26 09:47:39;;;;;;;6.32;2.40;;;;;;;;;;5072547;28;20068;-60
2023/12/26 09:50:06;;;;;;;8.98;2.42;;;;;;;;;;5078453;28;20048;-61
2023/12/26 09:52:36;;;;;;;6.25;2.25;;;;;;;;;;5080167;28;20502;-60
2023/12/26 09:55:03;;;;;;;7.32;2.35;;;;;;;;;;5088371;28;20047;-62
2023/12/26 09:57:30;;;;;;;7.22;2.00;;;;;;;;;;5081569;28;20052;-60
2023/12/26 09:59:58;;;;;;;5.82;2.00;;;;;;;;;;5086901;28;20047;-60
2023/12/26 10:02:24;;;;;;;6.63;2.03;;;;;;;;;;5078658;28;20094;-60
2023/12/26 10:04:51;;;;;;;4.82;1.90;;;;;;;;;;5075786;28;20052;-60
2023/12/26 10:07:19;;;;;;;5.72;2.00;;;;;;;;;;5076447;28;20055;-60
2023/12/26 10:09:48;;;;;;;7.55;1.85;;;;;;;;;;5075580;28;20053;-59
2023/12/26 10:12:15;;;;;;;4.82;1.80;;;;;;;;;;5090773;28;20052;-59
2023/12/26 10:14:41;;;;;;;8.82;2.00;;;;;;;;;;5092433;28;20469;-60
2023/12/26 10:17:10;;;;;;;6.00;1.80;;;;;;;;;;5085816;28;20048;-59
2023/12/26 10:19:38;;;;;;;6.40;2.72;;;;;;;;;;5075759;28;20055;-59
2023/12/26 10:22:05;;;;;;;7.22;2.20;;;;;;;;;;5077611;28;20055;-59
2023/12/26 10:24:32;;;;;;;7.90;2.35;;;;;;;;;;5081888;28;20060;-58
2023/12/26 10:27:01;;;;;;;6.38;2.10;;;;;;;;;;5087337;28;20417;-58
2023/12/26 10:29:28;;;;;;;5.47;2.25;;;;;;;;;;5077190;28;20071;-58
2023/12/26 10:31:55;;;;;;;4.63;2.05;;;;;;;;;;5082265;28;20056;-58
2023/12/26 10:34:22;;;;;;;6.25;2.40;;;;;;;;;;5080482;28;20059;-57
2023/12/26 10:36:49;;;;;;;7.43;2.60;;;;;;;;;;5084180;28;20044;-58
2023/12/26 10:39:17;;;;;;;9.43;2.60;;;;;;;;;;5086227;28;20059;-58
2023/12/26 10:41:44;;;;;;;8.55;2.53;;;;;;;;;;5079213;28;20067;-58
2023/12/26 10:44:14;;;;;;;8.35;2.45;;;;;;;;;;5084361;28;20056;-58
2023/12/26 10:46:42;;;;;;;5.65;2.22;;;;;;;;;;5074979;28;20053;-58
2023/12/26 10:49:10;;;;;;;8.40;3.03;;;;;;;;;;5075346;28;20060;-59
2023/12/26 10:51:40;;;;;;;10.18;2.53;;;;;;;;;;5075139;28;20394;-59
2023/12/26 10:54:11;;;;;;;8.15;2.70;;;;;;;;;;5080081;28;20405;-59
2023/12/26 10:56:38;;;;;;;8.35;2.45;;;;;;;;;;5089710;28;20060;-59
2023/12/26 10:59:06;;;;;;;8.27;2.10;;;;;;;;;;5090899;28;20051;-58
2023/12/26 13:52:48;;;;;;;6.28;2.47;;;;;;;;;;5088366;28;20453;-60
2023/12/26 13:55:33;;;;;;;7.28;2.20;;;;;;;;;;5098928;28;20051;-60
2023/12/26 13:58:18;;;;;;;8.57;2.60;;;;;;;;;;5098595;28;20056;-60
2023/12/26 14:01:04;;;;;;;8.07;2.58;;;;;;;;;;5099067;28;20056;-60
2023/12/26 14:03:50;;;;;;;6.80;2.17;;;;;;;;;;5098808;28;20052;-59
2023/12/26 14:06:35;;;;;;;6.93;2.03;;;;;;;;;;5099043;28;20055;-59
2023/12/26 14:09:20;;;;;;;11.05;3.30;;;;;;;;;;5080558;28;20048;-60
2023/12/26 14:12:06;;;;;;;8.77;3.20;;;;;;;;;;5078664;28;20067;-60
2023/12/26 14:14:53;;;;;;;7.72;2.20;;;;;;;;;;5079001;28;20106;-59
2023/12/26 14:17:19;;;;;;;8.20;2.47;;;;;;;;;;5078643;28;20075;-59
2023/12/26 14:19:46;;;;;;;10.00;2.33;;;;;;;;;;5078513;28;20057;-60
2023/12/26 14:22:13;;;;;;;6.38;2.20;;;;;;;;;;5078634;28;20044;-59
2023/12/26 14:24:40;;;;;;;11.65;2.38;;;;;;;;;;5078367;28;20055;-60
2023/12/26 14:27:08;;;;;;;7.13;2.10;;;;;;;;;;5078643;28;20052;-60
2023/12/26 14:29:35;;;;;;;9.27;2.70;;;;;;;;;;5078306;28;20517;-59
2023/12/26 14:32:03;;;;;;;8.10;2.60;;;;;;;;;;5078499;28;20060;-60
2023/12/26 14:34:30;;;;;;;7.45;2.15;;;;;;;;;;5077893;28;20068;-60
2023/12/26 14:36:57;;;;;;;6.97;2.30;;;;;;;;;;5085187;28;20059;-60
2023/12/26 14:39:23;;;;;;;8.18;2.60;;;;;;;;;;5076852;28;20513;-59
2023/12/26 14:41:50;;;;;;;5.25;2.08;;;;;;;;;;5074738;28;20076;-60
2023/12/26 14:44:17;;;;;;;10.02;2.72;;;;;;;;;;5087854;28;20048;-59
2023/12/26 14:46:43;;;;;;;10.82;2.80;;;;;;;;;;5095274;28;20405;-60
2023/12/26 14:49:12;;;;;;;9.82;2.08;;;;;;;;;;5095240;28;20477;-60
2023/12/26 14:51:38;;;;;;;7.45;2.22;;;;;;;;;;5095331;28;20056;-58
2023/12/26 14:54:05;;;;;;;8.13;2.13;;;;;;;;;;5082324;28;20045;-58
2023/12/26 14:56:32;;;;;;;7.65;2.15;;;;;;;;;;5074972;28;20052;-59
2023/12/26 14:58:59;;;;;;;8.55;2.53;;;;;;;;;;5074705;28;20052;-59
2023/12/26 15:01:26;;;;;;;6.03;1.90;;;;;;;;;;5074535;28;20075;-59
2023/12/26 15:03:54;;;;;;;7.55;2.20;;;;;;;;;;5074330;28;20498;-59
2023/12/26 15:06:22;;;;;;;7.18;2.13;;;;;;;;;;5073304;28;20053;-59
2023/12/26 15:08:49;;;;;;;7.32;2.28;;;;;;;;;;5077298;28;20052;-59
2023/12/26 15:11:16;;;;;;;10.40;2.30;;;;;;;;;;5085835;28;20436;-59
2023/12/26 15:13:43;;;;;;;6.13;2.60;;;;;;;;;;5080207;28;20052;-58
2023/12/26 15:16:16;;;;;;;7.43;2.72;;;;;;;;;;5089303;28;20053;-59
2023/12/26 15:18:43;;;;;;;7.28;2.58;;;;;;;;;;5079270;28;20053;-60
2023/12/26 15:21:10;;;;;;;6.78;2.45;;;;;;;;;;5078389;28;20493;-59
2023/12/26 15:23:38;;;;;;;9.10;2.58;;;;;;;;;;5072565;28;20048;-62
2023/12/26 15:26:12;;;;;;;7.57;2.22;;;;;;;;;;5072599;28;20513;-59
2023/12/26 15:28:40;;;;;;;10.90;2.92;;;;;;;;;;5080013;28;20060;-59
2023/12/26 15:31:10;;;;;;;7.88;2.75;;;;;;;;;;5089056;28;20048;-59
2023/12/26 15:33:39;;;;;;;10.20;2.95;;;;;;;;;;5089690;28;20425;-62
2023/12/26 15:36:06;;;;;;;10.40;3.33;;;;;;;;;;5084123;28;20055;-62
2023/12/26 15:38:33;;;;;;;10.07;3.25;;;;;;;;;;5078751;28;20044;-59
2023/12/26 15:41:01;;;;;;;11.65;3.55;;;;;;;;;;5074004;28;20059;-60
2023/12/26 15:43:28;;;;;;;11.52;2.90;;;;;;;;;;5073434;28;20055;-61
2023/12/26 15:45:55;;;;;;;9.88;2.67;;;;;;;;;;5072378;28;20056;-59
2023/12/26 15:48:22;;;;;;;6.07;2.70;;;;;;;;;;5072407;28;20049;-60
2023/12/26 15:50:48;;;;;;;9.80;2.90;;;;;;;;;;5073390;28;20060;-59
2023/12/26 15:53:15;;;;;;;7.78;2.50;;;;;;;;;;5073453;28;20044;-59
2023/12/26 15:55:42;;;;;;;7.82;2.40;;;;;;;;;;5073870;28;20060;-60
2023/12/26 15:58:12;;;;;;;8.82;2.40;;;;;;;;;;5073500;28;20052;-59
2023/12/26 16:00:38;;;;;;;;;;;;;;;;;;5074225;28;20481;-59
2023/12/26 16:03:05;;;;;;;9.98;2.40;;;;;;;;;;5073800;28;19927;-59
2023/12/26 16:05:34;;;;;;;10.98;3.05;;;;;;;;;;5073413;28;20409;-59
2023/12/26 16:08:02;;;;;;;7.53;2.27;;;;;;;;;;5073287;28;20052;-59
2023/12/26 16:10:29;;;;;;;9.23;3.00;;;;;;;;;;5073242;28;20490;-59
2023/12/26 16:12:55;;;;;;;9.48;2.50;;;;;;;;;;5073482;28;20517;-59
2023/12/26 16:15:24;;;;;;;10.93;2.83;;;;;;;;;;5073424;28;20083;-60
2023/12/26 16:17:51;;;;;;;7.88;3.25;;;;;;;;;;5073006;28;20048;-60
2023/12/26 16:20:17;;;;;;;8.00;3.40;;;;;;;;;;5073342;28;20060;-60
2023/12/26 16:22:44;;;;;;;9.00;3.08;;;;;;;;;;5073181;28;20055;-59
2023/12/26 16:25:11;;;;;;;8.35;2.65;;;;;;;;;;5073112;28;20060;-60
2023/12/26 16:27:38;;;;;;;11.32;2.67;;;;;;;;;;5073229;28;20119;-60
2023/12/26 16:30:06;;;;;;;12.00;2.83;;;;;;;;;;5073022;28;20064;-57
2023/12/26 16:32:34;;;;;;;8.98;3.15;;;;;;;;;;5073178;28;20052;-60
2023/12/26 16:35:04;;;;;;;10.63;3.00;;;;;;;;;;5072794;28;20052;-60
2023/12/26 16:37:31;;;;;;;8.23;2.80;;;;;;;;;;5072960;28;20048;-60
2023/12/26 16:39:58;;;;;;;9.18;2.95;;;;;;;;;;5072879;28;20055;-60
2023/12/26 16:42:25;;;;;;;8.27;3.20;;;;;;;;;;5072879;28;20059;-59
2023/12/26 16:44:53;;;;;;;9.68;3.30;;;;;;;;;;5072839;28;20053;-60
2023/12/26 16:47:20;;;;;;;11.38;3.83;;;;;;;;;;5072888;28;20059;-60
2023/12/26 16:49:48;;;;;;;9.20;3.05;;;;;;;;;;5072877;28;20052;-60
2023/12/26 16:52:17;;;;;;;8.65;2.55;;;;;;;;;;5072514;28;20048;-60
2023/12/26 16:54:44;;;;;;;8.70;2.53;;;;;;;;;;5072548;28;20072;-60
2023/12/26 16:57:12;;;;;;;9.57;2.35;;;;;;;;;;5072537;28;20056;-60
2023/12/26 16:59:39;;;;;;;10.05;2.80;;;;;;;;;;5072337;28;20056;-61
2023/12/26 17:02:06;;;;;;;10.07;3.08;;;;;;;;;;5072227;28;20048;-60
2023/12/26 17:04:33;;;;;;;8.27;2.97;;;;;;;;;;5072203;28;20079;-60
2023/12/26 17:07:02;;;;;;;9.50;3.17;;;;;;;;;;5072387;28;20060;-60
2023/12/26 17:09:29;;;;;;;9.10;2.75;;;;;;;;;;5072382;28;20067;-60
2023/12/26 17:11:56;;;;;;;8.02;2.53;;;;;;;;;;5072316;28;20052;-60
2023/12/26 17:14:23;;;;;;;10.68;3.35;;;;;;;;;;5072495;28;20067;-60
2023/12/26 17:16:50;;;;;;;9.85;2.58;;;;;;;;;;5072314;28;20048;-60
2023/12/26 17:19:17;;;;;;;8.43;2.90;;;;;;;;;;5072165;28;20056;-60
2023/12/26 17:21:44;;;;;;;8.07;2.42;;;;;;;;;;5072216;28;20063;-60
2023/12/26 17:24:12;;;;;;;6.65;2.58;;;;;;;;;;5072120;28;20044;-59
2023/12/26 17:26:39;;;;;;;12.30;2.60;;;;;;;;;;5072601;28;20057;-59
2023/12/26 17:29:06;;;;;;;12.95;3.22;;;;;;;;;;5072165;28;20048;-59
2023/12/26 17:31:33;;;;;;;9.02;3.13;;;;;;;;;;5072444;28;20512;-59
2023/12/26 17:34:01;;;;;;;8.82;2.78;;;;;;;;;;5072078;28;20134;-60
2023/12/26 17:36:27;;;;;;;9.75;3.33;;;;;;;;;;5072492;28;20048;-59